sensor_id;sensor_type;location;lat;lon;timestamp;pressure;altitude;pressure_sealevel;temperature;humidity
4167;BME280;2097;51.104;7.150;2022-09-09T00:01:52;98205.91;;;15.72;97.31
4167;BME280;2097;51.104;7.150;2022-09-09T00:04:26;98208.00;;;15.69;97.36
4167;BME280;2097;51.104;7.150;2022-09-09T00:07:03;98201.91;;;15.68;97.91
4167;BME280;2097;51.104;7.150;2022-09-09T00:09:35;98194.38;;;15.65;97.77
4167;BME280;2097;51.104;7.150;2022-09-09T00:12:11;98192.72;;;15.64;97.70
4167;BME280;2097;51.104;7.150;2022-09-09T00:14:45;98192.97;;;15.61;97.73
4167;BME280;2097;51.104;7.150;2022-09-09T00:17:21;98189.78;;;15.58;98.28
4167;BME280;2097;51.104;7.150;2022-09-09T00:19:55;98196.38;;;15.52;98.17
4167;BME280;2097;51.104;7.150;2022-09-09T00:22:26;98186.44;;;15.46;98.43
4167;BME280;2097;51.104;7.150;2022-09-09T00:24:54;98180.94;;;15.40;98.70
4167;BME280;2097;51.104;7.150;2022-09-09T00:27:26;98182.00;;;15.37;98.94
4167;BME280;2097;51.104;7.150;2022-09-09T00:29:56;98175.97;;;15.37;99.23
4167;BME280;2097;51.104;7.150;2022-09-09T00:32:28;98175.97;;;15.37;98.98
4167;BME280;2097;51.104;7.150;2022-09-09T00:35:02;98183.81;;;15.37;99.26
4167;BME280;2097;51.104;7.150;2022-09-09T00:37:32;98183.66;;;15.38;99.01
4167;BME280;2097;51.104;7.150;2022-09-09T00:40:04;98177.75;;;15.36;99.02
4167;BME280;2097;51.104;7.150;2022-09-09T00:42:41;98172.50;;;15.36;99.29
4167;BME280;2097;51.104;7.150;2022-09-09T00:45:19;98169.78;;;15.38;99.54
4167;BME280;2097;51.104;7.150;2022-09-09T00:47:51;98177.63;;;15.38;99.34
4167;BME280;2097;51.104;7.150;2022-09-09T00:50:31;98178.44;;;15.38;99.89
4167;BME280;2097;51.104;7.150;2022-09-09T00:53:12;98179.97;;;15.41;99.76
4167;BME280;2097;51.104;7.150;2022-09-09T00:55:48;98181.75;;;15.40;99.65
4167;BME280;2097;51.104;7.150;2022-09-09T00:58:15;98178.06;;;15.43;99.69
4167;BME280;2097;51.104;7.150;2022-09-09T01:00:44;98159.44;;;15.36;99.72
4167;BME280;2097;51.104;7.150;2022-09-09T01:03:19;98181.06;;;15.48;100.00
4167;BME280;2097;51.104;7.150;2022-09-09T01:05:57;98173.22;;;15.48;99.90
4167;BME280;2097;51.104;7.150;2022-09-09T01:08:41;98179.31;;;15.48;100.00
4167;BME280;2097;51.104;7.150;2022-09-09T01:11:16;98180.25;;;15.47;99.91
4167;BME280;2097;51.104;7.150;2022-09-09T01:13:47;98185.50;;;15.47;100.00
4167;BME280;2097;51.104;7.150;2022-09-09T01:16:17;98178.59;;;15.46;100.00
4167;BME280;2097;51.104;7.150;2022-09-09T01:18:46;98178.75;;;15.45;100.00
4167;BME280;2097;51.104;7.150;2022-09-09T01:21:21;98171.97;;;15.42;100.00
4167;BME280;2097;51.104;7.150;2022-09-09T01:24:08;98177.38;;;15.41;100.00
4167;BME280;2097;51.104;7.150;2022-09-09T01:26:43;98175.13;;;15.36;100.00
4167;BME280;2097;51.104;7.150;2022-09-09T01:29:12;98160.25;;;15.27;100.00
4167;BME280;2097;51.104;7.150;2022-09-09T01:31:41;98174.03;;;15.29;100.00
4167;BME280;2097;51.104;7.150;2022-09-09T01:34:10;98180.22;;;15.28;100.00
4167;BME280;2097;51.104;7.150;2022-09-09T01:36:40;98171.69;;;15.26;100.00
4167;BME280;2097;51.104;7.150;2022-09-09T01:39:10;98181.41;;;15.24;100.00
4167;BME280;2097;51.104;7.150;2022-09-09T01:41:38;98177.25;;;15.22;100.00
4167;BME280;2097;51.104;7.150;2022-09-09T01:44:07;98176.13;;;15.15;100.00
4167;BME280;2097;51.104;7.150;2022-09-09T01:46:34;98181.91;;;15.09;100.00
4167;BME280;2097;51.104;7.150;2022-09-09T01:49:03;98176.59;;;14.99;100.00
4167;BME280;2097;51.104;7.150;2022-09-09T01:51:31;98177.13;;;14.93;100.00
4167;BME280;2097;51.104;7.150;2022-09-09T01:53:58;98175.59;;;14.91;100.00
4167;BME280;2097;51.104;7.150;2022-09-09T01:56:34;98174.34;;;14.85;100.00
4167;BME280;2097;51.104;7.150;2022-09-09T01:59:18;98172.25;;;14.80;100.00
4167;BME280;2097;51.104;7.150;2022-09-09T02:01:59;98169.03;;;14.76;100.00
4167;BME280;2097;51.104;7.150;2022-09-09T02:04:36;98177.72;;;14.77;100.00
4167;BME280;2097;51.104;7.150;2022-09-09T02:07:10;98024.22;;;13.89;100.00
4167;BME280;2097;51.104;7.150;2022-09-09T02:09:42;98178.63;;;14.86;100.00
4167;BME280;2097;51.104;7.150;2022-09-09T02:12:14;98178.91;;;14.93;100.00
4167;BME280;2097;51.104;7.150;2022-09-09T02:14:50;98176.59;;;14.99;100.00
4167;BME280;2097;51.104;7.150;2022-09-09T02:17:22;98179.53;;;15.06;100.00
4167;BME280;2097;51.104;7.150;2022-09-09T02:19:54;98185.88;;;15.13;100.00
4167;BME280;2097;51.104;7.150;2022-09-09T02:22:24;98188.09;;;15.17;100.00
4167;BME280;2097;51.104;7.150;2022-09-09T02:24:56;98146.84;;;14.91;100.00
4167;BME280;2097;51.104;7.150;2022-09-09T02:27:24;98188.81;;;15.19;100.00
4167;BME280;2097;51.104;7.150;2022-09-09T02:29:55;98182.88;;;15.17;100.00
4167;BME280;2097;51.104;7.150;2022-09-09T02:32:23;98188.81;;;15.19;100.00
4167;BME280;2097;51.104;7.150;2022-09-09T02:34:55;98005.38;;;14.17;100.00
4167;BME280;2097;51.104;7.150;2022-09-09T02:37:26;98186.25;;;15.29;100.00
4167;BME280;2097;51.104;7.150;2022-09-09T02:39:54;98179.81;;;15.33;100.00
4167;BME280;2097;51.104;7.150;2022-09-09T02:42:21;98177.03;;;15.34;100.00
4167;BME280;2097;51.104;7.150;2022-09-09T02:44:49;98182.28;;;15.34;100.00
4167;BME280;2097;51.104;7.150;2022-09-09T02:47:29;98176.22;;;15.34;100.00
4167;BME280;2097;51.104;7.150;2022-09-09T02:50:05;98181.47;;;15.34;100.00
4167;BME280;2097;51.104;7.150;2022-09-09T02:52:42;98181.47;;;15.34;100.00
4167;BME280;2097;51.104;7.150;2022-09-09T02:55:18;98183.13;;;15.35;100.00
4167;BME280;2097;51.104;7.150;2022-09-09T02:57:49;98182.28;;;15.34;100.00
4167;BME280;2097;51.104;7.150;2022-09-09T03:00:22;98177.75;;;15.36;100.00
4167;BME280;2097;51.104;7.150;2022-09-09T03:02:51;98186.44;;;15.37;100.00
4167;BME280;2097;51.104;7.150;2022-09-09T03:05:18;98181.19;;;15.37;100.00
4167;BME280;2097;51.104;7.150;2022-09-09T03:07:45;98161.75;;;15.30;100.00
4167;BME280;2097;51.104;7.150;2022-09-09T03:10:12;98177.63;;;15.38;100.00
4167;BME280;2097;51.104;7.150;2022-09-09T03:12:39;98173.22;;;15.38;100.00
4167;BME280;2097;51.104;7.150;2022-09-09T03:15:07;98173.22;;;15.38;100.00
4167;BME280;2097;51.104;7.150;2022-09-09T03:17:35;98175.13;;;15.36;100.00
4167;BME280;2097;51.104;7.150;2022-09-09T03:20:03;98172.91;;;15.32;100.00
4167;BME280;2097;51.104;7.150;2022-09-09T03:22:30;98153.78;;;15.01;100.00
4167;BME280;2097;51.104;7.150;2022-09-09T03:24:57;98178.91;;;15.23;100.00
4167;BME280;2097;51.104;7.150;2022-09-09T03:27:24;98131.72;;;14.94;100.00
4167;BME280;2097;51.104;7.150;2022-09-09T03:29:51;98157.44;;;15.19;100.00
4167;BME280;2097;51.104;7.150;2022-09-09T03:32:18;98155.91;;;15.17;100.00
4167;BME280;2097;51.104;7.150;2022-09-09T03:34:47;98156.31;;;15.12;100.00
4167;BME280;2097;51.104;7.150;2022-09-09T03:37:16;98152.44;;;15.07;100.00
4167;BME280;2097;51.104;7.150;2022-09-09T03:39:44;98159.84;;;15.02;100.00
4167;BME280;2097;51.104;7.150;2022-09-09T03:42:12;98160.22;;;14.97;100.00
4167;BME280;2097;51.104;7.150;2022-09-09T03:44:44;98161.19;;;14.96;100.00
4167;BME280;2097;51.104;7.150;2022-09-09T03:47:13;98161.19;;;14.96;100.00
4167;BME280;2097;51.104;7.150;2022-09-09T03:49:40;98170.41;;;15.00;100.00
4167;BME280;2097;51.104;7.150;2022-09-09T03:52:08;98158.75;;;15.04;100.00
4167;BME280;2097;51.104;7.150;2022-09-09T03:54:36;98158.47;;;15.07;100.00
4167;BME280;2097;51.104;7.150;2022-09-09T03:57:04;98163.44;;;15.10;100.00
4167;BME280;2097;51.104;7.150;2022-09-09T03:59:31;98163.19;;;15.13;100.00
4167;BME280;2097;51.104;7.150;2022-09-09T04:01:57;98159.63;;;15.14;100.00
4167;BME280;2097;51.104;7.150;2022-09-09T04:04:24;98148.03;;;15.07;100.00
4167;BME280;2097;51.104;7.150;2022-09-09T04:06:51;98163.88;;;15.15;100.00
4167;BME280;2097;51.104;7.150;2022-09-09T04:09:18;98162.09;;;15.16;100.00
4167;BME280;2097;51.104;7.150;2022-09-09T04:11:49;98161.97;;;15.17;100.00
4167;BME280;2097;51.104;7.150;2022-09-09T04:14:17;98167.91;;;15.19;100.00
4167;BME280;2097;51.104;7.150;2022-09-09T04:16:43;98173.13;;;15.19;100.00
4167;BME280;2097;51.104;7.150;2022-09-09T04:19:11;98166.94;;;15.20;100.00
4167;BME280;2097;51.104;7.150;2022-09-09T04:21:38;98153.53;;;15.14;100.00
4167;BME280;2097;51.104;7.150;2022-09-09T04:24:06;98164.19;;;15.22;100.00
4167;BME280;2097;51.104;7.150;2022-09-09T04:31:51;98156.75;;;15.17;100.00
4167;BME280;2097;51.104;7.150;2022-09-09T04:34:18;98156.06;;;15.25;100.00
4167;BME280;2097;51.104;7.150;2022-09-09T04:36:45;98161.22;;;15.26;100.00
4167;BME280;2097;51.104;7.150;2022-09-09T04:39:12;98159.41;;;15.27;100.00
4167;BME280;2097;51.104;7.150;2022-09-09T04:41:38;98159.41;;;15.27;100.00
4167;BME280;2097;51.104;7.150;2022-09-09T04:44:05;98158.59;;;15.26;100.00
4167;BME280;2097;51.104;7.150;2022-09-09T04:46:32;98162.88;;;15.27;100.00
4167;BME280;2097;51.104;7.150;2022-09-09T04:49:01;98160.25;;;15.27;100.00
4167;BME280;2097;51.104;7.150;2022-09-09T04:51:27;98162.88;;;15.27;100.00
4167;BME280;2097;51.104;7.150;2022-09-09T04:53:56;98163.69;;;15.28;100.00
4167;BME280;2097;51.104;7.150;2022-09-09T04:56:23;98170.72;;;15.27;100.00
4167;BME280;2097;51.104;7.150;2022-09-09T04:58:52;98163.56;;;15.29;100.00
4167;BME280;2097;51.104;7.150;2022-09-09T05:01:21;98172.38;;;15.28;100.00
4167;BME280;2097;51.104;7.150;2022-09-09T05:03:49;98170.72;;;15.27;100.00
4167;BME280;2097;51.104;7.150;2022-09-09T05:06:19;98178.41;;;15.29;100.00
4167;BME280;2097;51.104;7.150;2022-09-09T05:08:46;98168.91;;;15.28;100.00
4167;BME280;2097;51.104;7.150;2022-09-09T05:11:19;98165.47;;;15.27;100.00
4167;BME280;2097;51.104;7.150;2022-09-09T05:13:47;98172.38;;;15.28;100.00
4167;BME280;2097;51.104;7.150;2022-09-09T05:16:15;98173.19;;;15.29;100.00
4167;BME280;2097;51.104;7.150;2022-09-09T05:18:43;98166.31;;;15.28;100.00
4167;BME280;2097;51.104;7.150;2022-09-09T05:21:12;98172.50;;;15.27;100.00
4167;BME280;2097;51.104;7.150;2022-09-09T05:23:40;98176.63;;;15.29;100.00
4167;BME280;2097;51.104;7.150;2022-09-09T05:26:12;98168.81;;;15.29;100.00
4167;BME280;2097;51.104;7.150;2022-09-09T05:28:39;98052.00;;;14.61;100.00
4167;BME280;2097;51.104;7.150;2022-09-09T05:31:07;98166.03;;;15.31;100.00
4167;BME280;2097;51.104;7.150;2022-09-09T05:33:35;98132.78;;;15.12;100.00
4167;BME280;2097;51.104;7.150;2022-09-09T05:36:04;98163.28;;;15.32;100.00
4167;BME280;2097;51.104;7.150;2022-09-09T05:38:33;98156.69;;;15.28;100.00
4167;BME280;2097;51.104;7.150;2022-09-09T05:41:03;97907.47;;;13.72;100.00
4167;BME280;2097;51.104;7.150;2022-09-09T05:43:30;98168.66;;;15.31;100.00
4167;BME280;2097;51.104;7.150;2022-09-09T05:46:02;98185.56;;;15.27;100.00
4167;BME280;2097;51.104;7.150;2022-09-09T05:48:31;98180.44;;;15.25;100.00
4167;BME280;2097;51.104;7.150;2022-09-09T05:50:58;98180.56;;;15.24;100.00
4167;BME280;2097;51.104;7.150;2022-09-09T05:53:26;98154.34;;;15.05;100.00
4167;BME280;2097;51.104;7.150;2022-09-09T05:55:59;98185.25;;;15.20;100.00
4167;BME280;2097;51.104;7.150;2022-09-09T05:58:28;98180.28;;;15.17;100.00
4167;BME280;2097;51.104;7.150;2022-09-09T06:01:00;98180.78;;;15.11;100.00
4167;BME280;2097;51.104;7.150;2022-09-09T06:03:27;98182.44;;;15.12;100.00
4167;BME280;2097;51.104;7.150;2022-09-09T06:05:57;98181.03;;;15.08;100.00
4167;BME280;2097;51.104;7.150;2022-09-09T06:08:25;98184.63;;;15.07;100.00
4167;BME280;2097;51.104;7.150;2022-09-09T06:10:51;98184.75;;;15.06;100.00
4167;BME280;2097;51.104;7.150;2022-09-09T06:13:18;98184.88;;;15.04;100.00
4167;BME280;2097;51.104;7.150;2022-09-09T06:15:53;98176.09;;;15.05;100.00
4167;BME280;2097;51.104;7.150;2022-09-09T06:18:20;98179.38;;;15.07;100.00
4167;BME280;2097;51.104;7.150;2022-09-09T06:20:56;98181.03;;;15.08;100.00
4167;BME280;2097;51.104;7.150;2022-09-09T06:23:24;98183.16;;;15.14;100.00
4167;BME280;2097;51.104;7.150;2022-09-09T06:25:51;98184.53;;;15.18;100.00
4167;BME280;2097;51.104;7.150;2022-09-09T06:28:18;98172.44;;;15.17;100.00
4167;BME280;2097;51.104;7.150;2022-09-09T06:30:45;98178.63;;;15.26;100.00
4167;BME280;2097;51.104;7.150;2022-09-09T06:33:14;98184.50;;;15.29;100.00
4167;BME280;2097;51.104;7.150;2022-09-09T06:35:41;98183.22;;;15.33;100.00
4167;BME280;2097;51.104;7.150;2022-09-09T06:38:07;98180.34;;;15.36;100.00
4167;BME280;2097;51.104;7.150;2022-09-09T06:40:34;98188.09;;;15.38;100.00
4167;BME280;2097;51.104;7.150;2022-09-09T06:43:02;98185.31;;;15.39;100.00
4167;BME280;2097;51.104;7.150;2022-09-09T06:45:28;98180.94;;;15.40;100.00
4167;BME280;2097;51.104;7.150;2022-09-09T06:47:56;98175.13;;;15.36;100.00
4167;BME280;2097;51.104;7.150;2022-09-09T06:50:24;98177.91;;;15.44;100.00
4167;BME280;2097;51.104;7.150;2022-09-09T06:52:51;98141.16;;;15.16;100.00
4167;BME280;2097;51.104;7.150;2022-09-09T06:55:18;98183.97;;;15.45;100.00
4167;BME280;2097;51.104;7.150;2022-09-09T06:57:46;98186.59;;;15.45;100.00
4167;BME280;2097;51.104;7.150;2022-09-09T07:00:14;98188.66;;;15.51;100.00
4167;BME280;2097;51.104;7.150;2022-09-09T07:02:41;98127.47;;;15.23;100.00
4167;BME280;2097;51.104;7.150;2022-09-09T07:05:08;98085.56;;;15.04;100.00
4167;BME280;2097;51.104;7.150;2022-09-09T07:07:36;98192.72;;;15.74;100.00
4167;BME280;2097;51.104;7.150;2022-09-09T07:10:04;98189.31;;;15.83;100.00
4167;BME280;2097;51.104;7.150;2022-09-09T07:12:30;98198.13;;;15.91;100.00
4167;BME280;2097;51.104;7.150;2022-09-09T07:14:57;98196.06;;;15.95;100.00
4167;BME280;2097;51.104;7.150;2022-09-09T07:17:24;98190.44;;;15.99;100.00
4167;BME280;2097;51.104;7.150;2022-09-09T07:19:51;98199.50;;;16.04;100.00
4167;BME280;2097;51.104;7.150;2022-09-09T07:22:18;98193.19;;;16.16;100.00
4167;BME280;2097;51.104;7.150;2022-09-09T07:24:46;98206.00;;;16.29;100.00
4167;BME280;2097;51.104;7.150;2022-09-09T07:27:14;98201.22;;;16.43;100.00
4167;BME280;2097;51.104;7.150;2022-09-09T07:29:41;98201.88;;;16.64;100.00
4167;BME280;2097;51.104;7.150;2022-09-09T07:32:08;98200.72;;;16.86;100.00
4167;BME280;2097;51.104;7.150;2022-09-09T07:34:34;98201.38;;;16.97;100.00
4167;BME280;2097;51.104;7.150;2022-09-09T07:37:02;98207.47;;;16.98;99.93
4167;BME280;2097;51.104;7.150;2022-09-09T07:39:29;98211.06;;;16.97;99.76
4167;BME280;2097;51.104;7.150;2022-09-09T07:41:57;98211.34;;;16.94;100.00
4167;BME280;2097;51.104;7.150;2022-09-09T07:44:24;98216.56;;;16.94;99.46
4167;BME280;2097;51.104;7.150;2022-09-09T07:46:52;98209.69;;;16.93;99.61
4167;BME280;2097;51.104;7.150;2022-09-09T07:49:19;98211.34;;;16.94;99.39
4167;BME280;2097;51.104;7.150;2022-09-09T07:51:47;98220.16;;;16.93;98.94
4167;BME280;2097;51.104;7.150;2022-09-09T07:54:16;98217.13;;;16.88;99.00
4167;BME280;2097;51.104;7.150;2022-09-09T07:56:45;98221.00;;;16.93;98.64
4167;BME280;2097;51.104;7.150;2022-09-09T07:59:13;98229.53;;;16.95;98.20
4167;BME280;2097;51.104;7.150;2022-09-09T08:01:42;98224.84;;;16.99;97.61
4167;BME280;2097;51.104;7.150;2022-09-09T08:04:12;98230.06;;;17.08;97.29
4167;BME280;2097;51.104;7.150;2022-09-09T08:06:42;98224.22;;;17.23;96.72
4167;BME280;2097;51.104;7.150;2022-09-09T08:09:10;98233.31;;;17.29;96.28
4167;BME280;2097;51.104;7.150;2022-09-09T08:11:38;98234.41;;;17.26;95.79
4167;BME280;2097;51.104;7.150;2022-09-09T08:14:06;98231.94;;;17.34;95.69
4167;BME280;2097;51.104;7.150;2022-09-09T08:16:37;98221.28;;;17.45;94.86
4167;BME280;2097;51.104;7.150;2022-09-09T08:19:04;98223.13;;;17.62;93.82
4167;BME280;2097;51.104;7.150;2022-09-09T08:21:34;98225.69;;;17.72;93.16
4167;BME280;2097;51.104;7.150;2022-09-09T08:24:02;98222.63;;;17.76;92.65
4167;BME280;2097;51.104;7.150;2022-09-09T08:26:33;98228.19;;;17.73;92.51
4167;BME280;2097;51.104;7.150;2022-09-09T08:29:01;98223.34;;;17.69;91.94
4167;BME280;2097;51.104;7.150;2022-09-09T08:31:30;98226.13;;;17.67;91.58
4167;BME280;2097;51.104;7.150;2022-09-09T08:34:00;98224.63;;;17.65;90.63
4167;BME280;2097;51.104;7.150;2022-09-09T08:36:30;98145.53;;;17.23;90.40
4167;BME280;2097;51.104;7.150;2022-09-09T08:38:59;98219.63;;;17.71;89.67
4167;BME280;2097;51.104;7.150;2022-09-09T08:44:32;98226.41;;;17.91;88.69
4167;BME280;2097;51.104;7.150;2022-09-09T08:47:11;98225.91;;;18.05;87.87
4167;BME280;2097;51.104;7.150;2022-09-09T08:50:08;98227.88;;;18.21;87.56
4167;BME280;2097;51.104;7.150;2022-09-09T08:52:48;98232.78;;;18.33;86.72
4167;BME280;2097;51.104;7.150;2022-09-09T08:55:22;98231.22;;;18.40;86.29
4167;BME280;2097;51.104;7.150;2022-09-09T08:57:53;98215.66;;;18.29;85.39
4167;BME280;2097;51.104;7.150;2022-09-09T09:00:22;98235.94;;;18.54;84.65
4167;BME280;2097;51.104;7.150;2022-09-09T09:02:58;98241.19;;;18.54;83.64
4167;BME280;2097;51.104;7.150;2022-09-09T09:05:35;98239.25;;;18.56;83.43
4167;BME280;2097;51.104;7.150;2022-09-09T09:08:08;98234.41;;;18.69;82.99
4167;BME280;2097;51.104;7.150;2022-09-09T09:10:45;98242.97;;;18.71;81.64
4167;BME280;2097;51.104;7.150;2022-09-09T09:13:15;98243.81;;;18.71;81.04
4167;BME280;2097;51.104;7.150;2022-09-09T09:15:46;98241.88;;;18.73;80.19
4167;BME280;2097;51.104;7.150;2022-09-09T09:18:17;98237.78;;;18.79;79.59
4167;BME280;2097;51.104;7.150;2022-09-09T09:20:50;98244.47;;;18.91;79.03
4167;BME280;2097;51.104;7.150;2022-09-09T09:23:22;98242.50;;;18.93;78.34
4167;BME280;2097;51.104;7.150;2022-09-09T09:25:52;98244.06;;;19.03;77.98
4167;BME280;2097;51.104;7.150;2022-09-09T09:28:25;98240.94;;;19.08;76.76
4167;BME280;2097;51.104;7.150;2022-09-09T09:30:53;98238.00;;;19.11;76.72
4167;BME280;2097;51.104;7.150;2022-09-09T09:33:26;98246.72;;;19.29;75.86
4167;BME280;2097;51.104;7.150;2022-09-09T09:35:57;98239.63;;;19.54;75.47
4167;BME280;2097;51.104;7.150;2022-09-09T09:38:26;98241.66;;;19.76;74.88
4167;BME280;2097;51.104;7.150;2022-09-09T09:40:55;98246.69;;;19.95;74.40
4167;BME280;2097;51.104;7.150;2022-09-09T09:43:26;98244.09;;;20.03;73.42
4167;BME280;2097;51.104;7.150;2022-09-09T09:45:53;98241.16;;;19.98;73.48
4167;BME280;2097;51.104;7.150;2022-09-09T09:48:20;98242.72;;;19.91;73.82
4167;BME280;2097;51.104;7.150;2022-09-09T09:50:50;98240.41;;;19.88;73.52
4167;BME280;2097;51.104;7.150;2022-09-09T09:53:22;98235.63;;;19.84;73.36
4167;BME280;2097;51.104;7.150;2022-09-09T09:55:55;98241.31;;;19.71;73.34
4167;BME280;2097;51.104;7.150;2022-09-09T09:58:23;98254.97;;;19.67;73.62
4167;BME280;2097;51.104;7.150;2022-09-09T10:00:51;98250.59;;;19.50;73.36
4167;BME280;2097;51.104;7.150;2022-09-09T10:03:22;98251.50;;;19.33;73.74
4167;BME280;2097;51.104;7.150;2022-09-09T10:05:50;98253.59;;;19.22;74.46
4167;BME280;2097;51.104;7.150;2022-09-09T10:08:17;98241.72;;;19.18;74.38
4167;BME280;2097;51.104;7.150;2022-09-09T10:11:07;98248.81;;;19.25;73.68
4167;BME280;2097;51.104;7.150;2022-09-09T10:13:47;98238.19;;;19.35;73.23
4167;BME280;2097;51.104;7.150;2022-09-09T10:16:35;98247.56;;;19.62;72.52
4167;BME280;2097;51.104;7.150;2022-09-09T10:19:09;98251.94;;;19.87;71.60
4167;BME280;2097;51.104;7.150;2022-09-09T10:21:56;98250.06;;;20.13;70.90
4167;BME280;2097;51.104;7.150;2022-09-09T10:24:56;98252.09;;;20.43;70.37
4167;BME280;2097;51.104;7.150;2022-09-09T10:27:34;98251.78;;;20.46;69.96
4167;BME280;2097;51.104;7.150;2022-09-09T10:30:12;98248.50;;;20.36;69.96
4167;BME280;2097;51.104;7.150;2022-09-09T10:32:46;98242.53;;;20.42;70.26
4167;BME280;2097;51.104;7.150;2022-09-09T10:35:31;98246.38;;;20.56;69.51
4167;BME280;2097;51.104;7.150;2022-09-09T10:38:14;98240.75;;;20.51;69.07
4167;BME280;2097;51.104;7.150;2022-09-09T10:40:46;98235.47;;;20.43;68.36
4167;BME280;2097;51.104;7.150;2022-09-09T10:43:33;98237.25;;;20.26;68.70
4167;BME280;2097;51.104;7.150;2022-09-09T10:46:09;98238.84;;;20.11;68.86
4167;BME280;2097;51.104;7.150;2022-09-09T10:48:48;98236.72;;;20.07;68.95
4167;BME280;2097;51.104;7.150;2022-09-09T10:51:23;98241.81;;;20.00;68.93
4167;BME280;2097;51.104;7.150;2022-09-09T10:54:12;98238.19;;;20.01;68.78
4167;BME280;2097;51.104;7.150;2022-09-09T10:56:49;98223.03;;;20.03;68.67
4167;BME280;2097;51.104;7.150;2022-09-09T10:59:26;98239.56;;;20.29;68.21
4167;BME280;2097;51.104;7.150;2022-09-09T11:01:58;98230.81;;;20.29;68.29
4167;BME280;2097;51.104;7.150;2022-09-09T11:04:30;98235.28;;;20.28;68.43
4167;BME280;2097;51.104;7.150;2022-09-09T11:07:04;98242.84;;;20.23;68.40
4167;BME280;2097;51.104;7.150;2022-09-09T11:09:36;98235.25;;;20.20;68.50
4167;BME280;2097;51.104;7.150;2022-09-09T11:12:05;98227.69;;;20.25;68.56
4167;BME280;2097;51.104;7.150;2022-09-09T11:14:42;98220.78;;;20.32;67.86
4167;BME280;2097;51.104;7.150;2022-09-09T11:17:12;98215.53;;;20.48;67.77
4167;BME280;2097;51.104;7.150;2022-09-09T11:19:43;98231.19;;;20.58;67.18
4167;BME280;2097;51.104;7.150;2022-09-09T11:22:17;98224.28;;;20.57;66.98
4167;BME280;2097;51.104;7.150;2022-09-09T11:24:50;98220.00;;;20.56;66.49
4167;BME280;2097;51.104;7.150;2022-09-09T11:27:22;98219.16;;;20.79;66.50
4167;BME280;2097;51.104;7.150;2022-09-09T11:30:16;98213.16;;;21.33;65.33
4167;BME280;2097;51.104;7.150;2022-09-09T11:33:10;98209.06;;;21.85;63.82
4167;BME280;2097;51.104;7.150;2022-09-09T11:35:51;98207.25;;;22.07;62.95
4167;BME280;2097;51.104;7.150;2022-09-09T11:38:25;98210.28;;;21.96;62.90
4167;BME280;2097;51.104;7.150;2022-09-09T11:40:57;98208.59;;;21.73;62.89
4167;BME280;2097;51.104;7.150;2022-09-09T11:43:28;98213.09;;;21.49;63.07
4167;BME280;2097;51.104;7.150;2022-09-09T11:45:59;98172.47;;;21.11;63.54
4167;BME280;2097;51.104;7.150;2022-09-09T11:48:38;98106.44;;;20.49;63.69
4167;BME280;2097;51.104;7.150;2022-09-09T11:51:09;98215.88;;;20.85;64.24
4167;BME280;2097;51.104;7.150;2022-09-09T11:53:48;98220.63;;;20.66;64.81
4167;BME280;2097;51.104;7.150;2022-09-09T11:56:24;98212.25;;;20.62;64.69
4167;BME280;2097;51.104;7.150;2022-09-09T11:58:57;98215.38;;;20.66;64.33
4167;BME280;2097;51.104;7.150;2022-09-09T12:01:41;98224.91;;;20.67;64.03
4167;BME280;2097;51.104;7.150;2022-09-09T12:04:26;98167.22;;;20.32;63.78
4167;BME280;2097;51.104;7.150;2022-09-09T12:06:58;98217.19;;;20.57;63.09
4167;BME280;2097;51.104;7.150;2022-09-09T12:09:31;98217.19;;;20.57;63.26
4167;BME280;2097;51.104;7.150;2022-09-09T12:12:06;98216.19;;;20.58;63.36
4167;BME280;2097;51.104;7.150;2022-09-09T12:14:36;98216.84;;;20.60;63.44
4167;BME280;2097;51.104;7.150;2022-09-09T12:17:18;98224.09;;;20.50;63.23
4167;BME280;2097;51.104;7.150;2022-09-09T12:20:00;98215.53;;;20.48;63.76
4167;BME280;2097;51.104;7.150;2022-09-09T12:22:35;98217.69;;;20.45;63.72
4167;BME280;2097;51.104;7.150;2022-09-09T12:25:09;98219.16;;;20.39;63.88
4167;BME280;2097;51.104;7.150;2022-09-09T12:27:45;98214.53;;;20.25;64.14
4167;BME280;2097;51.104;7.150;2022-09-09T12:30:16;98223.22;;;20.10;64.56
4167;BME280;2097;51.104;7.150;2022-09-09T12:32:44;98218.09;;;20.00;64.67
4167;BME280;2097;51.104;7.150;2022-09-09T12:35:14;98217.03;;;19.85;64.74
4167;BME280;2097;51.104;7.150;2022-09-09T12:37:50;98213.34;;;19.70;64.59
4167;BME280;2097;51.104;7.150;2022-09-09T12:40:20;98199.16;;;19.55;64.89
4167;BME280;2097;51.104;7.150;2022-09-09T12:42:47;98212.13;;;19.57;65.10
4167;BME280;2097;51.104;7.150;2022-09-09T12:45:17;98218.03;;;19.51;65.32
4167;BME280;2097;51.104;7.150;2022-09-09T12:47:48;98208.97;;;19.46;65.01
4167;BME280;2097;51.104;7.150;2022-09-09T12:50:20;98196.78;;;19.45;65.40
4167;BME280;2097;51.104;7.150;2022-09-09T12:52:48;98187.72;;;19.39;65.17
4167;BME280;2097;51.104;7.150;2022-09-09T12:55:18;98198.34;;;19.63;65.01
4167;BME280;2097;51.104;7.150;2022-09-09T12:57:48;98191.94;;;19.73;64.46
4167;BME280;2097;51.104;7.150;2022-09-09T13:00:18;98188.84;;;19.86;64.16
4167;BME280;2097;51.104;7.150;2022-09-09T13:02:50;98195.19;;;20.01;62.85
4167;BME280;2097;51.104;7.150;2022-09-09T13:05:19;98191.41;;;20.03;62.26
4167;BME280;2097;51.104;7.150;2022-09-09T13:07:46;98195.31;;;19.91;62.86
4167;BME280;2097;51.104;7.150;2022-09-09T13:10:15;98148.78;;;19.51;63.43
4167;BME280;2097;51.104;7.150;2022-09-09T13:12:46;98201.81;;;19.63;63.74
4167;BME280;2097;51.104;7.150;2022-09-09T13:15:20;98195.31;;;19.50;64.28
4167;BME280;2097;51.104;7.150;2022-09-09T13:17:56;98209.09;;;19.36;64.51
4167;BME280;2097;51.104;7.150;2022-09-09T13:20:24;98214.78;;;19.24;65.63
4167;BME280;2097;51.104;7.150;2022-09-09T13:22:52;98214.63;;;19.08;67.02
4167;BME280;2097;51.104;7.150;2022-09-09T13:25:23;98163.50;;;18.77;68.18
4167;BME280;2097;51.104;7.150;2022-09-09T13:27:53;98182.66;;;18.95;69.01
4167;BME280;2097;51.104;7.150;2022-09-09T13:30:22;98205.31;;;19.39;69.06
4167;BME280;2097;51.104;7.150;2022-09-09T13:33:01;98191.63;;;19.76;68.68
4167;BME280;2097;51.104;7.150;2022-09-09T13:35:29;98197.69;;;20.02;68.18
4167;BME280;2097;51.104;7.150;2022-09-09T13:37:56;98203.94;;;20.09;67.83
4167;BME280;2097;51.104;7.150;2022-09-09T13:40:24;98201.63;;;19.98;68.00
4167;BME280;2097;51.104;7.150;2022-09-09T13:42:53;98198.53;;;19.69;68.60
4167;BME280;2097;51.104;7.150;2022-09-09T13:45:23;98201.72;;;19.48;69.47
4167;BME280;2097;51.104;7.150;2022-09-09T13:47:52;98196.50;;;19.22;70.23